createdAt,value
2022-11-15T00:00:18.728Z,23.67
2022-11-15T00:03:04.020Z,22.13
2022-11-15T00:05:49.195Z,22.50
2022-11-15T00:08:34.572Z,26.67
2022-11-15T00:11:19.434Z,26.83
2022-11-15T00:14:04.440Z,21.93
2022-11-15T00:16:49.676Z,23.73
2022-11-15T00:19:34.907Z,28.93
2022-11-15T00:22:20.451Z,25.93
2022-11-15T00:25:05.980Z,25.50
2022-11-15T00:27:52.713Z,22.10
2022-11-15T00:30:37.557Z,21.70
2022-11-15T00:33:22.830Z,24.43
2022-11-15T00:36:10.164Z,25.03
2022-11-15T00:38:55.073Z,28.87
2022-11-15T00:41:40.276Z,21.10
2022-11-15T00:44:25.108Z,21.83
2022-11-15T00:47:10.375Z,21.43
2022-11-15T00:49:55.365Z,23.53
2022-11-15T00:52:40.338Z,22.03
2022-11-15T00:55:25.542Z,27.07
2022-11-15T00:58:10.689Z,23.57
2022-11-15T01:00:56.203Z,24.37
2022-11-15T01:03:42.286Z,22.20
2022-11-15T01:06:27.490Z,25.53
2022-11-15T01:09:12.618Z,26.83
2022-11-15T01:11:57.467Z,24.73
2022-11-15T01:14:42.832Z,23.93
2022-11-15T01:17:28.104Z,26.30
2022-11-15T01:20:13.266Z,23.10
2022-11-15T01:22:58.185Z,23.33
2022-11-15T01:25:43.193Z,26.33
2022-11-15T01:28:32.336Z,29.00
2022-11-15T01:31:19.261Z,28.03
2022-11-15T01:34:04.603Z,24.87
2022-11-15T01:36:49.973Z,26.93
2022-11-15T01:39:34.935Z,26.50
2022-11-15T01:55:35.346Z,28.77
2022-11-15T01:58:20.569Z,26.87
2022-11-15T02:01:05.859Z,26.43
2022-11-15T02:04:01.806Z,24.90
2022-11-15T02:06:47.879Z,24.33
2022-11-15T02:09:32.842Z,28.10
2022-11-15T02:12:20.167Z,29.93
2022-11-15T02:15:06.368Z,27.70
2022-11-15T02:18:17.455Z,30.53
2022-11-15T02:21:07.118Z,27.20
2022-11-15T02:23:52.101Z,27.03
2022-11-15T02:26:43.515Z,27.10
2022-11-15T02:29:42.085Z,24.80
2022-11-15T02:32:46.121Z,24.70
2022-11-15T02:35:52.533Z,24.87
2022-11-15T02:38:56.419Z,28.40
2022-11-15T02:41:50.609Z,23.73
2022-11-15T02:44:41.032Z,24.57
2022-11-15T02:47:28.427Z,26.20
2022-11-15T02:50:16.847Z,23.83
2022-11-15T02:53:01.871Z,24.07
2022-11-15T02:55:50.190Z,20.10
2022-11-15T02:58:44.151Z,24.67
2022-11-15T03:01:29.184Z,22.10
2022-11-15T03:04:23.439Z,19.93
2022-11-15T03:07:23.028Z,22.70
2022-11-15T03:10:16.641Z,22.43
2022-11-15T03:13:15.755Z,20.70
2022-11-15T03:16:05.223Z,22.40
2022-11-15T03:19:10.350Z,21.17
2022-11-15T03:21:57.068Z,19.37
2022-11-15T03:24:44.478Z,19.90
2022-11-15T03:27:32.182Z,19.23
2022-11-15T03:30:17.892Z,22.80
2022-11-15T03:33:03.478Z,20.20
2022-11-15T03:35:49.089Z,23.83
2022-11-15T03:38:35.975Z,21.23
2022-11-15T03:41:24.452Z,20.33
2022-11-15T03:44:21.035Z,21.67
2022-11-15T03:47:06.270Z,23.73
2022-11-15T03:49:58.910Z,18.60
2022-11-15T03:52:45.714Z,22.67
2022-11-15T03:55:32.873Z,20.63
2022-11-15T03:58:18.183Z,18.20
2022-11-15T04:01:03.426Z,19.07
2022-11-15T04:03:48.740Z,19.37
2022-11-15T04:06:34.738Z,22.23
2022-11-15T04:09:19.830Z,22.30
2022-11-15T04:12:04.861Z,21.67
2022-11-15T04:15:08.097Z,22.03
2022-11-15T04:17:54.398Z,23.03
2022-11-15T04:20:58.338Z,24.83
2022-11-15T04:24:06.326Z,23.93
2022-11-15T04:26:51.822Z,25.33
2022-11-15T04:29:36.797Z,25.57
2022-11-15T04:32:22.171Z,23.43
2022-11-15T04:35:07.159Z,24.23
2022-11-15T04:37:52.446Z,24.20
2022-11-15T04:40:37.814Z,31.77
2022-11-15T04:43:23.036Z,24.53
2022-11-15T04:46:08.243Z,30.20
2022-11-15T04:48:58.295Z,26.30
2022-11-15T04:51:44.239Z,25.10
2022-11-15T04:54:29.278Z,29.47
2022-11-15T04:57:14.846Z,25.47
2022-11-15T05:00:00.069Z,31.17
2022-11-15T05:03:03.659Z,31.53
2022-11-15T05:05:48.743Z,34.27
2022-11-15T05:08:34.083Z,29.43
2022-11-15T05:11:19.120Z,30.77
2022-11-15T05:14:04.265Z,28.53
2022-11-15T05:16:49.371Z,28.70
2022-11-15T05:19:34.569Z,29.40
2022-11-15T05:22:20.046Z,29.33
2022-11-15T05:25:06.639Z,37.63
2022-11-15T05:27:52.034Z,30.97
2022-11-15T05:30:37.343Z,30.57
2022-11-15T05:33:22.444Z,34.10
2022-11-15T05:36:10.795Z,30.00
2022-11-15T05:38:56.150Z,34.93
2022-11-15T05:41:46.758Z,26.17
2022-11-15T05:44:32.330Z,29.17
2022-11-15T05:47:22.394Z,43.10
2022-11-15T05:50:07.683Z,40.80
2022-11-15T05:52:53.045Z,36.20
2022-11-15T05:55:39.267Z,40.30
2022-11-15T05:58:24.512Z,33.53
2022-11-15T06:01:10.118Z,33.37
2022-11-15T06:03:55.066Z,44.60
2022-11-15T06:06:40.341Z,43.67
2022-11-15T06:09:25.529Z,43.47
2022-11-15T06:12:10.782Z,42.60
2022-11-15T06:14:55.884Z,46.77
2022-11-15T06:17:41.211Z,49.77
2022-11-15T06:20:26.828Z,57.87
2022-11-15T06:23:11.969Z,42.50
2022-11-15T06:25:58.624Z,43.80
2022-11-15T06:28:43.569Z,42.73
2022-11-15T06:31:28.633Z,50.80
2022-11-15T06:34:13.993Z,52.47
2022-11-15T06:36:58.850Z,46.87
2022-11-15T06:39:44.067Z,50.43
2022-11-15T06:42:29.000Z,47.97
2022-11-15T06:45:13.987Z,50.00
2022-11-15T06:47:59.031Z,50.17
2022-11-15T06:50:44.009Z,52.73
2022-11-15T06:53:30.609Z,47.87
2022-11-15T06:56:16.214Z,55.53
2022-11-15T06:59:01.776Z,59.87
2022-11-15T07:01:47.196Z,53.10
2022-11-15T07:04:32.511Z,52.77
2022-11-15T07:07:17.723Z,54.23
2022-11-15T07:10:03.306Z,50.40
2022-11-15T07:12:49.750Z,53.43
2022-11-15T07:15:34.879Z,54.23
2022-11-15T07:18:20.199Z,51.20
2022-11-15T07:21:06.508Z,57.20
2022-11-15T07:23:52.237Z,45.67
2022-11-15T07:26:37.391Z,50.47
2022-11-15T07:29:22.688Z,46.40
2022-11-15T07:32:07.614Z,44.17
2022-11-15T07:34:52.862Z,45.03
2022-11-15T07:37:38.087Z,50.13
2022-11-15T07:40:23.767Z,43.17
2022-11-15T07:43:09.437Z,44.43
2022-11-15T07:45:58.828Z,39.13
2022-11-15T07:48:45.693Z,46.43
2022-11-15T07:51:30.872Z,42.63
2022-11-15T07:54:15.885Z,51.53
2022-11-15T07:57:06.684Z,38.23
2022-11-15T07:59:52.536Z,37.50
2022-11-15T08:02:37.720Z,33.97
2022-11-15T08:05:23.131Z,33.63
2022-11-15T08:08:09.886Z,37.50
2022-11-15T08:10:55.067Z,35.53
2022-11-15T08:13:40.153Z,33.07
2022-11-15T08:16:25.657Z,34.13
2022-11-15T08:19:11.092Z,28.63
2022-11-15T08:21:56.145Z,28.37
2022-11-15T08:24:41.460Z,25.57
2022-11-15T08:27:26.438Z,31.43
2022-11-15T08:30:12.228Z,29.13
2022-11-15T08:32:58.441Z,27.80
2022-11-15T08:35:44.399Z,27.30
2022-11-15T08:38:32.833Z,27.70
2022-11-15T08:41:25.256Z,26.13
2022-11-15T08:44:10.297Z,31.67
2022-11-15T08:46:55.309Z,27.23
2022-11-15T08:49:40.638Z,24.47
2022-11-15T08:52:25.646Z,25.77
2022-11-15T08:55:10.701Z,27.93
2022-11-15T08:57:57.966Z,30.17
2022-11-15T09:00:43.025Z,25.53
2022-11-15T09:03:27.903Z,28.83
2022-11-15T09:06:13.196Z,23.43
2022-11-15T09:08:58.685Z,23.07
2022-11-15T09:11:44.250Z,23.80
2022-11-15T09:14:29.289Z,22.17
2022-11-15T09:17:14.560Z,24.10
2022-11-15T09:19:59.660Z,20.77
2022-11-15T09:22:44.755Z,19.10
2022-11-15T09:25:29.847Z,19.00
2022-11-15T09:28:14.894Z,21.53
2022-11-15T09:31:00.788Z,19.67
2022-11-15T09:33:46.793Z,23.83
2022-11-15T09:36:31.722Z,22.27
2022-11-15T09:39:16.941Z,22.23
2022-11-15T09:42:07.084Z,19.23
2022-11-15T09:45:04.346Z,18.97
2022-11-15T09:47:49.553Z,16.23
2022-11-15T09:50:47.830Z,23.93
2022-11-15T09:53:17.085Z,21.83
2022-11-15T09:55:58.333Z,19.37
